sensor_id;sensor_type;location;lat;lon;timestamp;pressure;altitude;pressure_sealevel;temperature;humidity
55022;BME280;68328;35.990;-86.756;2023-03-13T00:02:09;98758.29;;;10.85;39.96
55022;BME280;68328;35.990;-86.756;2023-03-13T00:04:35;98757.20;;;11.19;40.15
55022;BME280;68328;35.990;-86.756;2023-03-13T00:07:00;98769.77;;;11.25;39.68
55022;BME280;68328;35.990;-86.756;2023-03-13T00:09:25;98779.55;;;11.08;39.66
55022;BME280;68328;35.990;-86.756;2023-03-13T00:11:51;98780.13;;;11.50;39.60
55022;BME280;68328;35.990;-86.756;2023-03-13T00:14:16;98788.93;;;11.32;41.21
55022;BME280;68328;35.990;-86.756;2023-03-13T00:16:41;98785.29;;;11.33;40.23
55022;BME280;68328;35.990;-86.756;2023-03-13T00:19:08;98793.59;;;11.19;41.15
55022;BME280;68328;35.990;-86.756;2023-03-13T00:21:33;98802.37;;;11.01;40.29
55022;BME280;68328;35.990;-86.756;2023-03-13T00:23:58;98802.04;;;10.95;41.20
55022;BME280;68328;35.990;-86.756;2023-03-13T00:26:25;98808.31;;;11.36;40.16
55022;BME280;68328;35.990;-86.756;2023-03-13T00:28:49;98815.18;;;11.76;40.10
55022;BME280;68328;35.990;-86.756;2023-03-13T00:31:17;98814.67;;;11.45;39.52
55022;BME280;68328;35.990;-86.756;2023-03-13T00:33:40;98813.41;;;11.52;40.29
55022;BME280;68328;35.990;-86.756;2023-03-13T00:36:06;98815.38;;;11.34;39.90
55022;BME280;68328;35.990;-86.756;2023-03-13T00:38:30;98814.08;;;11.64;39.61
55022;BME280;68328;35.990;-86.756;2023-03-13T00:41:01;98811.95;;;11.82;39.91
55022;BME280;68328;35.990;-86.756;2023-03-13T00:43:20;98813.73;;;11.50;40.43
55022;BME280;68328;35.990;-86.756;2023-03-13T00:45:45;98825.09;;;11.41;41.01
55022;BME280;68328;35.990;-86.756;2023-03-13T00:48:11;98825.58;;;10.97;41.55
55022;BME280;68328;35.990;-86.756;2023-03-13T00:50:37;98831.62;;;11.06;40.76
55022;BME280;68328;35.990;-86.756;2023-03-13T00:53:02;98821.90;;;11.05;40.93
55022;BME280;68328;35.990;-86.756;2023-03-13T00:55:27;98820.58;;;11.27;40.18
55022;BME280;68328;35.990;-86.756;2023-03-13T00:57:52;98815.81;;;11.41;41.37
55022;BME280;68328;35.990;-86.756;2023-03-13T01:00:19;98817.46;;;11.68;40.82
55022;BME280;68328;35.990;-86.756;2023-03-13T01:02:44;98825.52;;;11.70;40.20
55022;BME280;68328;35.990;-86.756;2023-03-13T01:05:09;98831.59;;;11.89;40.53
55022;BME280;68328;35.990;-86.756;2023-03-13T01:07:34;98830.55;;;11.56;39.54
55022;BME280;68328;35.990;-86.756;2023-03-13T01:09:59;98827.90;;;11.98;40.07
55022;BME280;68328;35.990;-86.756;2023-03-13T01:12:24;98822.21;;;11.75;39.96
55022;BME280;68328;35.990;-86.756;2023-03-13T01:14:50;98826.25;;;11.82;40.26
55022;BME280;68328;35.990;-86.756;2023-03-13T01:17:15;98832.22;;;11.79;40.71
55022;BME280;68328;35.990;-86.756;2023-03-13T01:19:40;98832.04;;;11.89;39.87
55022;BME280;68328;35.990;-86.756;2023-03-13T01:22:06;98837.97;;;11.77;40.02
55022;BME280;68328;35.990;-86.756;2023-03-13T01:24:31;98838.69;;;11.98;40.78
55022;BME280;68328;35.990;-86.756;2023-03-13T01:26:57;98835.64;;;11.72;40.17
55022;BME280;68328;35.990;-86.756;2023-03-13T01:29:22;98833.72;;;11.83;40.14
55022;BME280;68328;35.990;-86.756;2023-03-13T01:31:47;98836.67;;;11.61;39.95
55022;BME280;68328;35.990;-86.756;2023-03-13T01:34:12;98841.04;;;11.77;40.44
55022;BME280;68328;35.990;-86.756;2023-03-13T01:36:37;98846.29;;;11.70;40.76
55022;BME280;68328;35.990;-86.756;2023-03-13T01:39:04;98851.03;;;11.53;40.88
55022;BME280;68328;35.990;-86.756;2023-03-13T01:41:30;98850.95;;;11.53;40.40
55022;BME280;68328;35.990;-86.756;2023-03-13T01:43:54;98848.87;;;11.63;39.83
55022;BME280;68328;35.990;-86.756;2023-03-13T01:46:20;98850.78;;;11.53;40.77
55022;BME280;68328;35.990;-86.756;2023-03-13T01:48:49;98848.87;;;11.44;40.06
55022;BME280;68328;35.990;-86.756;2023-03-13T01:51:15;98846.59;;;11.29;40.44
55022;BME280;68328;35.990;-86.756;2023-03-13T01:53:38;98851.00;;;11.34;40.18
55022;BME280;68328;35.990;-86.756;2023-03-13T01:56:05;98859.64;;;11.36;40.22
55022;BME280;68328;35.990;-86.756;2023-03-13T01:58:28;98864.30;;;11.82;39.63
55022;BME280;68328;35.990;-86.756;2023-03-13T02:00:52;98864.98;;;11.70;39.10
55022;BME280;68328;35.990;-86.756;2023-03-13T02:03:19;98874.61;;;12.03;38.80
55022;BME280;68328;35.990;-86.756;2023-03-13T02:05:43;98884.94;;;11.67;39.57
55022;BME280;68328;35.990;-86.756;2023-03-13T02:08:12;98884.51;;;12.12;39.17
55022;BME280;68328;35.990;-86.756;2023-03-13T02:10:37;98879.14;;;11.87;39.21
55022;BME280;68328;35.990;-86.756;2023-03-13T02:13:00;98886.38;;;11.95;39.09
55022;BME280;68328;35.990;-86.756;2023-03-13T02:15:25;98889.10;;;11.93;39.15
55022;BME280;68328;35.990;-86.756;2023-03-13T02:17:49;98896.64;;;11.87;39.14
55022;BME280;68328;35.990;-86.756;2023-03-13T02:20:18;98908.06;;;11.62;39.57
55022;BME280;68328;35.990;-86.756;2023-03-13T02:22:44;98917.20;;;11.17;39.19
55022;BME280;68328;35.990;-86.756;2023-03-13T02:25:10;98928.98;;;11.78;39.67
55022;BME280;68328;35.990;-86.756;2023-03-13T02:27:30;98933.00;;;11.94;40.91
55022;BME280;68328;35.990;-86.756;2023-03-13T02:29:56;98937.23;;;11.95;38.58
55022;BME280;68328;35.990;-86.756;2023-03-13T02:32:22;98931.36;;;11.72;40.24
55022;BME280;68328;35.990;-86.756;2023-03-13T02:34:48;98931.15;;;12.04;38.77
55022;BME280;68328;35.990;-86.756;2023-03-13T02:37:12;98940.72;;;11.86;39.20
55022;BME280;68328;35.990;-86.756;2023-03-13T02:39:39;98941.99;;;11.77;38.85
55022;BME280;68328;35.990;-86.756;2023-03-13T02:42:03;98944.45;;;11.41;39.67
55022;BME280;68328;35.990;-86.756;2023-03-13T02:44:27;98948.84;;;11.75;39.63
55022;BME280;68328;35.990;-86.756;2023-03-13T02:46:53;98943.38;;;11.65;39.19
55022;BME280;68328;35.990;-86.756;2023-03-13T02:49:22;98941.28;;;11.48;39.58
55022;BME280;68328;35.990;-86.756;2023-03-13T02:51:44;98942.04;;;11.58;39.34
55022;BME280;68328;35.990;-86.756;2023-03-13T02:54:12;98943.97;;;11.59;40.55
55022;BME280;68328;35.990;-86.756;2023-03-13T02:56:36;98958.37;;;12.09;38.78
55022;BME280;68328;35.990;-86.756;2023-03-13T02:59:00;98974.35;;;12.04;38.81
55022;BME280;68328;35.990;-86.756;2023-03-13T03:01:24;98980.08;;;11.77;38.54
55022;BME280;68328;35.990;-86.756;2023-03-13T03:03:50;98977.24;;;11.99;38.89
55022;BME280;68328;35.990;-86.756;2023-03-13T03:06:15;98973.01;;;12.02;39.39
55022;BME280;68328;35.990;-86.756;2023-03-13T03:08:40;98976.33;;;12.13;39.83
55022;BME280;68328;35.990;-86.756;2023-03-13T03:11:06;98981.57;;;11.96;39.98
55022;BME280;68328;35.990;-86.756;2023-03-13T03:13:31;98982.35;;;12.00;40.11
55022;BME280;68328;35.990;-86.756;2023-03-13T03:15:56;98980.92;;;11.71;38.48
55022;BME280;68328;35.990;-86.756;2023-03-13T03:18:22;98985.93;;;12.19;38.58
55022;BME280;68328;35.990;-86.756;2023-03-13T03:20:48;98990.44;;;11.73;39.03
55022;BME280;68328;35.990;-86.756;2023-03-13T03:23:13;98985.24;;;12.01;39.35
55022;BME280;68328;35.990;-86.756;2023-03-13T03:25:38;98977.04;;;11.84;38.74
55022;BME280;68328;35.990;-86.756;2023-03-13T03:28:04;98966.82;;;12.01;40.77
55022;BME280;68328;35.990;-86.756;2023-03-13T03:30:29;98969.26;;;12.28;39.63
55022;BME280;68328;35.990;-86.756;2023-03-13T03:32:54;98977.68;;;12.27;39.13
55022;BME280;68328;35.990;-86.756;2023-03-13T03:35:20;98986.18;;;12.45;39.01
55022;BME280;68328;35.990;-86.756;2023-03-13T03:37:45;98989.79;;;12.23;38.99
55022;BME280;68328;35.990;-86.756;2023-03-13T03:40:11;98981.13;;;12.17;39.12
55022;BME280;68328;35.990;-86.756;2023-03-13T03:42:35;98982.80;;;11.45;39.14
55022;BME280;68328;35.990;-86.756;2023-03-13T03:45:01;98993.29;;;11.55;38.69
55022;BME280;68328;35.990;-86.756;2023-03-13T03:47:26;99000.84;;;11.57;39.00
55022;BME280;68328;35.990;-86.756;2023-03-13T03:49:51;99006.72;;;11.36;39.61
55022;BME280;68328;35.990;-86.756;2023-03-13T03:52:16;99013.63;;;10.95;39.45
55022;BME280;68328;35.990;-86.756;2023-03-13T03:54:42;99009.09;;;10.90;39.95
55022;BME280;68328;35.990;-86.756;2023-03-13T03:57:07;99010.02;;;11.05;40.42
55022;BME280;68328;35.990;-86.756;2023-03-13T03:59:32;99011.01;;;10.79;41.36
55022;BME280;68328;35.990;-86.756;2023-03-13T04:01:58;99007.84;;;10.70;40.19
55022;BME280;68328;35.990;-86.756;2023-03-13T04:04:24;99005.64;;;10.77;42.09
55022;BME280;68328;35.990;-86.756;2023-03-13T04:06:48;99008.87;;;10.74;41.63
55022;BME280;68328;35.990;-86.756;2023-03-13T04:09:14;99009.22;;;10.42;41.92
55022;BME280;68328;35.990;-86.756;2023-03-13T04:11:39;99016.26;;;10.67;42.38
55022;BME280;68328;35.990;-86.756;2023-03-13T04:14:04;99021.50;;;10.62;41.80
55022;BME280;68328;35.990;-86.756;2023-03-13T04:16:30;99022.54;;;10.54;41.75
55022;BME280;68328;35.990;-86.756;2023-03-13T04:18:55;99025.67;;;10.85;41.18
55022;BME280;68328;35.990;-86.756;2023-03-13T04:21:21;99027.10;;;10.83;41.40
55022;BME280;68328;35.990;-86.756;2023-03-13T04:23:46;99021.34;;;10.71;42.04
55022;BME280;68328;35.990;-86.756;2023-03-13T04:26:11;99024.79;;;10.77;42.50
55022;BME280;68328;35.990;-86.756;2023-03-13T04:28:37;99028.88;;;11.04;42.36
55022;BME280;68328;35.990;-86.756;2023-03-13T04:31:02;99030.58;;;10.74;42.60
55022;BME280;68328;35.990;-86.756;2023-03-13T04:33:28;99019.44;;;10.74;42.69
55022;BME280;68328;35.990;-86.756;2023-03-13T04:35:53;99009.42;;;10.98;42.08
55022;BME280;68328;35.990;-86.756;2023-03-13T04:38:19;99000.48;;;10.91;42.39
55022;BME280;68328;35.990;-86.756;2023-03-13T04:40:44;98998.21;;;10.70;42.16
55022;BME280;68328;35.990;-86.756;2023-03-13T04:43:09;98998.06;;;10.83;41.37
55022;BME280;68328;35.990;-86.756;2023-03-13T04:45:34;98994.07;;;10.83;41.51
55022;BME280;68328;35.990;-86.756;2023-03-13T04:48:00;98982.47;;;10.57;41.90
55022;BME280;68328;35.990;-86.756;2023-03-13T04:50:25;98979.99;;;10.68;41.89
55022;BME280;68328;35.990;-86.756;2023-03-13T04:52:50;98985.60;;;10.57;41.57
55022;BME280;68328;35.990;-86.756;2023-03-13T04:55:16;98988.05;;;10.35;41.60
55022;BME280;68328;35.990;-86.756;2023-03-13T04:57:42;98985.87;;;10.24;41.73
55022;BME280;68328;35.990;-86.756;2023-03-13T05:00:08;98987.26;;;10.00;42.06
55022;BME280;68328;35.990;-86.756;2023-03-13T05:02:33;98991.92;;;10.27;42.44
55022;BME280;68328;35.990;-86.756;2023-03-13T05:04:58;98995.48;;;10.12;42.28
55022;BME280;68328;35.990;-86.756;2023-03-13T05:07:23;98999.57;;;10.22;42.45
55022;BME280;68328;35.990;-86.756;2023-03-13T05:09:49;99005.09;;;10.20;42.25
55022;BME280;68328;35.990;-86.756;2023-03-13T05:12:14;99008.36;;;10.08;42.06
55022;BME280;68328;35.990;-86.756;2023-03-13T05:14:39;99007.28;;;10.19;41.93
55022;BME280;68328;35.990;-86.756;2023-03-13T05:17:05;99006.71;;;9.88;43.29
55022;BME280;68328;35.990;-86.756;2023-03-13T05:19:30;99019.90;;;9.88;43.44
55022;BME280;68328;35.990;-86.756;2023-03-13T05:21:56;99027.93;;;9.96;42.27
55022;BME280;68328;35.990;-86.756;2023-03-13T05:24:21;99027.65;;;10.08;43.27
55022;BME280;68328;35.990;-86.756;2023-03-13T05:26:46;99027.45;;;9.98;43.42
55022;BME280;68328;35.990;-86.756;2023-03-13T05:29:11;99026.01;;;9.85;43.44
55022;BME280;68328;35.990;-86.756;2023-03-13T05:31:37;99031.99;;;9.24;43.64
55022;BME280;68328;35.990;-86.756;2023-03-13T05:34:02;99029.47;;;10.08;43.31
55022;BME280;68328;35.990;-86.756;2023-03-13T05:36:28;99030.20;;;10.19;43.35
55022;BME280;68328;35.990;-86.756;2023-03-13T05:38:53;99029.81;;;10.02;42.67
55022;BME280;68328;35.990;-86.756;2023-03-13T05:41:18;99022.00;;;10.11;42.50
55022;BME280;68328;35.990;-86.756;2023-03-13T05:43:43;99017.86;;;10.27;42.20
55022;BME280;68328;35.990;-86.756;2023-03-13T05:46:09;99007.59;;;10.24;42.86
55022;BME280;68328;35.990;-86.756;2023-03-13T05:48:34;99000.38;;;10.52;43.17
55022;BME280;68328;35.990;-86.756;2023-03-13T05:50:59;98998.92;;;10.53;42.43
55022;BME280;68328;35.990;-86.756;2023-03-13T05:53:25;98995.32;;;10.33;42.56
55022;BME280;68328;35.990;-86.756;2023-03-13T05:55:51;98988.96;;;10.66;42.79
55022;BME280;68328;35.990;-86.756;2023-03-13T05:58:16;98988.22;;;10.70;42.52
55022;BME280;68328;35.990;-86.756;2023-03-13T06:00:41;98976.54;;;10.62;44.00
55022;BME280;68328;35.990;-86.756;2023-03-13T06:03:06;98974.67;;;10.24;43.25
55022;BME280;68328;35.990;-86.756;2023-03-13T06:05:32;98979.19;;;10.25;43.32
55022;BME280;68328;35.990;-86.756;2023-03-13T06:07:57;98980.89;;;10.32;43.31
55022;BME280;68328;35.990;-86.756;2023-03-13T06:10:23;98975.31;;;10.19;42.96
55022;BME280;68328;35.990;-86.756;2023-03-13T06:12:52;98979.31;;;10.17;43.18
55022;BME280;68328;35.990;-86.756;2023-03-13T06:15:13;98981.26;;;10.13;43.04
55022;BME280;68328;35.990;-86.756;2023-03-13T06:17:39;98981.69;;;10.10;43.08
55022;BME280;68328;35.990;-86.756;2023-03-13T06:20:04;98978.57;;;10.37;43.34
55022;BME280;68328;35.990;-86.756;2023-03-13T06:22:29;98983.40;;;10.23;43.37
55022;BME280;68328;35.990;-86.756;2023-03-13T06:24:55;98980.41;;;10.26;43.31
55022;BME280;68328;35.990;-86.756;2023-03-13T06:27:21;98978.57;;;10.48;43.80
55022;BME280;68328;35.990;-86.756;2023-03-13T06:29:45;98984.87;;;10.40;44.64
55022;BME280;68328;35.990;-86.756;2023-03-13T06:32:11;98994.08;;;10.37;43.55
55022;BME280;68328;35.990;-86.756;2023-03-13T06:34:36;98985.46;;;10.20;44.26
55022;BME280;68328;35.990;-86.756;2023-03-13T06:37:03;98984.07;;;10.31;43.86
55022;BME280;68328;35.990;-86.756;2023-03-13T06:39:27;98985.85;;;10.63;43.70
55022;BME280;68328;35.990;-86.756;2023-03-13T06:41:52;98991.72;;;10.62;43.30
55022;BME280;68328;35.990;-86.756;2023-03-13T06:44:18;98999.23;;;10.63;42.99
55022;BME280;68328;35.990;-86.756;2023-03-13T06:46:43;99017.64;;;10.43;43.50
55022;BME280;68328;35.990;-86.756;2023-03-13T06:49:09;99020.09;;;10.29;43.38
55022;BME280;68328;35.990;-86.756;2023-03-13T06:51:34;99010.68;;;10.41;43.54
55022;BME280;68328;35.990;-86.756;2023-03-13T06:54:01;99004.68;;;10.65;43.22
55022;BME280;68328;35.990;-86.756;2023-03-13T06:56:25;99011.55;;;10.74;44.66
55022;BME280;68328;35.990;-86.756;2023-03-13T06:58:50;99005.76;;;10.47;43.33
55022;BME280;68328;35.990;-86.756;2023-03-13T07:01:16;99004.99;;;10.71;43.42
55022;BME280;68328;35.990;-86.756;2023-03-13T07:03:41;99007.51;;;10.53;43.21
55022;BME280;68328;35.990;-86.756;2023-03-13T07:06:06;99009.07;;;10.87;44.13
55022;BME280;68328;35.990;-86.756;2023-03-13T07:08:31;99010.56;;;10.61;44.44
55022;BME280;68328;35.990;-86.756;2023-03-13T07:10:59;99011.07;;;10.63;43.52
55022;BME280;68328;35.990;-86.756;2023-03-13T07:13:21;99015.82;;;10.33;43.87
55022;BME280;68328;35.990;-86.756;2023-03-13T07:15:47;99025.09;;;10.32;44.16
55022;BME280;68328;35.990;-86.756;2023-03-13T07:18:12;99020.68;;;10.47;43.82
55022;BME280;68328;35.990;-86.756;2023-03-13T07:20:37;99023.85;;;10.26;43.86
55022;BME280;68328;35.990;-86.756;2023-03-13T07:23:03;99027.74;;;10.21;43.56
55022;BME280;68328;35.990;-86.756;2023-03-13T07:25:28;99029.98;;;10.32;43.44
55022;BME280;68328;35.990;-86.756;2023-03-13T07:27:54;99036.91;;;9.97;43.69
55022;BME280;68328;35.990;-86.756;2023-03-13T07:30:19;99037.89;;;10.13;44.58
55022;BME280;68328;35.990;-86.756;2023-03-13T07:32:44;99050.37;;;9.88;43.90
55022;BME280;68328;35.990;-86.756;2023-03-13T07:35:09;99054.23;;;9.95;44.10
55022;BME280;68328;35.990;-86.756;2023-03-13T07:37:34;99052.86;;;10.15;44.94
55022;BME280;68328;35.990;-86.756;2023-03-13T07:40:00;99044.22;;;10.14;44.54
55022;BME280;68328;35.990;-86.756;2023-03-13T07:42:25;99049.85;;;9.68;44.56
55022;BME280;68328;35.990;-86.756;2023-03-13T07:44:51;99055.70;;;9.67;44.60
55022;BME280;68328;35.990;-86.756;2023-03-13T07:47:16;99057.05;;;9.84;44.49
55022;BME280;68328;35.990;-86.756;2023-03-13T07:49:40;99051.85;;;10.32;44.52
55022;BME280;68328;35.990;-86.756;2023-03-13T07:52:06;99049.28;;;9.90;44.11
55022;BME280;68328;35.990;-86.756;2023-03-13T07:54:32;99048.79;;;9.80;44.37
55022;BME280;68328;35.990;-86.756;2023-03-13T07:56:57;99049.57;;;10.07;43.94
55022;BME280;68328;35.990;-86.756;2023-03-13T07:59:21;99049.95;;;10.12;43.98
55022;BME280;68328;35.990;-86.756;2023-03-13T08:01:47;99049.22;;;10.07;44.20
55022;BME280;68328;35.990;-86.756;2023-03-13T08:04:13;99050.47;;;10.08;44.52
55022;BME280;68328;35.990;-86.756;2023-03-13T08:06:38;99050.78;;;10.12;43.56
55022;BME280;68328;35.990;-86.756;2023-03-13T08:09:03;99050.38;;;10.50;43.51
55022;BME280;68328;35.990;-86.756;2023-03-13T08:11:29;99051.79;;;10.09;43.77
55022;BME280;68328;35.990;-86.756;2023-03-13T08:13:54;99050.96;;;10.27;42.89
55022;BME280;68328;35.990;-86.756;2023-03-13T08:16:20;99052.69;;;9.98;43.08
55022;BME280;68328;35.990;-86.756;2023-03-13T08:18:46;99052.34;;;10.10;43.45
55022;BME280;68328;35.990;-86.756;2023-03-13T08:21:12;99059.89;;;9.88;43.41
55022;BME280;68328;35.990;-86.756;2023-03-13T08:23:35;99063.18;;;9.82;44.17
55022;BME280;68328;35.990;-86.756;2023-03-13T08:26:05;99063.00;;;10.24;44.11
55022;BME280;68328;35.990;-86.756;2023-03-13T08:28:25;99062.64;;;10.33;43.78
55022;BME280;68328;35.990;-86.756;2023-03-13T08:30:51;99068.82;;;10.14;44.03
55022;BME280;68328;35.990;-86.756;2023-03-13T08:33:16;99071.58;;;10.00;43.75
55022;BME280;68328;35.990;-86.756;2023-03-13T08:35:42;99065.68;;;10.26;43.73
55022;BME280;68328;35.990;-86.756;2023-03-13T08:38:07;99069.49;;;10.23;44.67
55022;BME280;68328;35.990;-86.756;2023-03-13T08:40:32;99069.18;;;10.43;43.81
55022;BME280;68328;35.990;-86.756;2023-03-13T08:42:57;99072.82;;;10.45;42.52
55022;BME280;68328;35.990;-86.756;2023-03-13T08:45:23;99074.12;;;10.29;43.20
55022;BME280;68328;35.990;-86.756;2023-03-13T08:47:52;99074.73;;;10.33;43.74
55022;BME280;68328;35.990;-86.756;2023-03-13T08:50:14;99076.89;;;10.66;43.21
55022;BME280;68328;35.990;-86.756;2023-03-13T08:52:39;99075.60;;;10.15;44.58
55022;BME280;68328;35.990;-86.756;2023-03-13T08:55:05;99074.50;;;10.13;44.30
55022;BME280;68328;35.990;-86.756;2023-03-13T08:57:30;99071.88;;;10.35;44.38
55022;BME280;68328;35.990;-86.756;2023-03-13T08:59:55;99070.35;;;10.54;43.82
55022;BME280;68328;35.990;-86.756;2023-03-13T09:02:20;99069.83;;;10.14;43.66
55022;BME280;68328;35.990;-86.756;2023-03-13T09:04:46;99072.81;;;10.23;43.35
55022;BME280;68328;35.990;-86.756;2023-03-13T09:07:11;99074.26;;;10.17;43.68
55022;BME280;68328;35.990;-86.756;2023-03-13T09:09:36;99073.77;;;9.84;44.48
55022;BME280;68328;35.990;-86.756;2023-03-13T09:12:03;99076.69;;;10.13;44.17
55022;BME280;68328;35.990;-86.756;2023-03-13T09:14:27;99077.47;;;10.19;43.63
55022;BME280;68328;35.990;-86.756;2023-03-13T09:16:53;99079.80;;;10.03;43.75
55022;BME280;68328;35.990;-86.756;2023-03-13T09:19:18;99075.83;;;10.13;43.38
55022;BME280;68328;35.990;-86.756;2023-03-13T09:21:43;99079.99;;;10.26;43.16
55022;BME280;68328;35.990;-86.756;2023-03-13T09:24:09;99081.95;;;10.34;42.82
55022;BME280;68328;35.990;-86.756;2023-03-13T09:26:35;99083.74;;;10.28;43.15
55022;BME280;68328;35.990;-86.756;2023-03-13T09:28:59;99085.02;;;10.42;43.47
55022;BME280;68328;35.990;-86.756;2023-03-13T09:31:27;99087.67;;;9.94;42.87
55022;BME280;68328;35.990;-86.756;2023-03-13T09:33:50;99087.68;;;9.59;43.43
55022;BME280;68328;35.990;-86.756;2023-03-13T09:36:17;99090.19;;;9.97;43.07
55022;BME280;68328;35.990;-86.756;2023-03-13T09:38:41;99093.38;;;9.74;43.10
55022;BME280;68328;35.990;-86.756;2023-03-13T09:41:19;99087.83;;;9.67;44.36
55022;BME280;68328;35.990;-86.756;2023-03-13T09:43:38;99089.84;;;9.91;43.52
55022;BME280;68328;35.990;-86.756;2023-03-13T09:45:59;99086.13;;;9.86;42.23
55022;BME280;68328;35.990;-86.756;2023-03-13T09:48:28;99090.04;;;9.71;42.76
55022;BME280;68328;35.990;-86.756;2023-03-13T09:50:56;99089.80;;;9.19;42.98
55022;BME280;68328;35.990;-86.756;2023-03-13T09:53:14;99097.64;;;9.57;42.66
55022;BME280;68328;35.990;-86.756;2023-03-13T09:55:41;99094.43;;;8.87;43.86
55022;BME280;68328;35.990;-86.756;2023-03-13T09:58:10;99090.83;;;9.29;43.70
55022;BME280;68328;35.990;-86.756;2023-03-13T10:00:32;99092.51;;;8.97;42.83
55022;BME280;68328;35.990;-86.756;2023-03-13T10:02:57;99093.21;;;9.31;43.10
55022;BME280;68328;35.990;-86.756;2023-03-13T10:05:22;99096.43;;;9.61;42.85
55022;BME280;68328;35.990;-86.756;2023-03-13T10:07:45;99092.04;;;9.18;42.71
55022;BME280;68328;35.990;-86.756;2023-03-13T10:10:13;99094.91;;;9.33;43.30
55022;BME280;68328;35.990;-86.756;2023-03-13T10:12:40;99095.59;;;9.36;43.53
55022;BME280;68328;35.990;-86.756;2023-03-13T10:17:32;99103.62;;;9.35;42.95
55022;BME280;68328;35.990;-86.756;2023-03-13T10:19:58;99104.31;;;9.27;43.13
55022;BME280;68328;35.990;-86.756;2023-03-13T10:22:19;99105.08;;;9.19;43.61
55022;BME280;68328;35.990;-86.756;2023-03-13T10:24:48;99109.38;;;8.72;43.49
55022;BME280;68328;35.990;-86.756;2023-03-13T10:27:09;99111.40;;;8.95;43.59
55022;BME280;68328;35.990;-86.756;2023-03-13T10:29:33;99111.52;;;8.17;44.64
55022;BME280;68328;35.990;-86.756;2023-03-13T10:32:00;99113.55;;;8.72;43.39
55022;BME280;68328;35.990;-86.756;2023-03-13T10:34:25;99115.23;;;8.69;43.39
55022;BME280;68328;35.990;-86.756;2023-03-13T10:36:54;99124.10;;;8.17;43.86
55022;BME280;68328;35.990;-86.756;2023-03-13T10:39:18;99125.70;;;8.02;44.16
55022;BME280;68328;35.990;-86.756;2023-03-13T10:41:40;99124.67;;;8.17;44.60
55022;BME280;68328;35.990;-86.756;2023-03-13T10:44:13;99127.22;;;8.36;44.21
55022;BME280;68328;35.990;-86.756;2023-03-13T10:46:33;99126.15;;;8.00;44.67
55022;BME280;68328;35.990;-86.756;2023-03-13T10:49:00;99129.43;;;8.04;45.28
55022;BME280;68328;35.990;-86.756;2023-03-13T10:51:32;99135.68;;;8.45;42.98
55022;BME280;68328;35.990;-86.756;2023-03-13T10:53:48;99134.79;;;7.37;44.31
55022;BME280;68328;35.990;-86.756;2023-03-13T10:56:15;99133.08;;;8.02;44.28
55022;BME280;68328;35.990;-86.756;2023-03-13T10:58:42;99131.61;;;8.05;43.30
55022;BME280;68328;35.990;-86.756;2023-03-13T11:01:15;99133.43;;;8.10;43.84
55022;BME280;68328;35.990;-86.756;2023-03-13T11:03:31;99134.23;;;7.94;43.46
55022;BME280;68328;35.990;-86.756;2023-03-13T11:05:56;99137.60;;;7.76;44.47
55022;BME280;68328;35.990;-86.756;2023-03-13T11:08:23;99139.39;;;8.29;43.90
55022;BME280;68328;35.990;-86.756;2023-03-13T11:10:52;99140.01;;;8.20;44.24
55022;BME280;68328;35.990;-86.756;2023-03-13T11:13:23;99137.89;;;8.14;43.39
55022;BME280;68328;35.990;-86.756;2023-03-13T11:15:43;99140.40;;;8.11;43.00
55022;BME280;68328;35.990;-86.756;2023-03-13T11:18:05;99141.57;;;8.15;43.47
55022;BME280;68328;35.990;-86.756;2023-03-13T11:20:27;99143.92;;;7.72;43.69
55022;BME280;68328;35.990;-86.756;2023-03-13T11:23:03;99147.12;;;7.79;44.59
55022;BME280;68328;35.990;-86.756;2023-03-13T11:25:22;99151.87;;;7.98;44.18
55022;BME280;68328;35.990;-86.756;2023-03-13T11:27:47;99153.51;;;7.52;44.20
55022;BME280;68328;35.990;-86.756;2023-03-13T11:30:17;99150.77;;;7.91;43.53
55022;BME280;68328;35.990;-86.756;2023-03-13T11:32:39;99152.00;;;7.96;44.31
55022;BME280;68328;35.990;-86.756;2023-03-13T11:35:01;99154.46;;;7.69;44.11
55022;BME280;68328;35.990;-86.756;2023-03-13T11:37:24;99159.09;;;7.83;45.32
55022;BME280;68328;35.990;-86.756;2023-03-13T11:39:55;99163.27;;;7.74;44.79
55022;BME280;68328;35.990;-86.756;2023-03-13T11:42:29;99165.74;;;7.68;45.00
55022;BME280;68328;35.990;-86.756;2023-03-13T11:44:48;99168.93;;;7.68;45.46
55022;BME280;68328;35.990;-86.756;2023-03-13T11:47:18;99169.91;;;7.61;43.52
55022;BME280;68328;35.990;-86.756;2023-03-13T11:49:43;99175.16;;;7.77;44.08
55022;BME280;68328;35.990;-86.756;2023-03-13T11:52:05;99181.39;;;7.67;43.46
55022;BME280;68328;35.990;-86.756;2023-03-13T11:54:39;99181.69;;;7.51;44.04
55022;BME280;68328;35.990;-86.756;2023-03-13T11:56:51;99185.69;;;7.62;46.05
55022;BME280;68328;35.990;-86.756;2023-03-13T11:59:26;99188.73;;;7.78;43.99
55022;BME280;68328;35.990;-86.756;2023-03-13T12:01:40;99187.47;;;7.75;43.53
55022;BME280;68328;35.990;-86.756;2023-03-13T12:04:08;99191.05;;;7.63;44.51
55022;BME280;68328;35.990;-86.756;2023-03-13T12:06:31;99193.96;;;7.50;44.18
55022;BME280;68328;35.990;-86.756;2023-03-13T12:08:58;99196.04;;;7.32;45.81
55022;BME280;68328;35.990;-86.756;2023-03-13T12:11:22;99199.08;;;7.38;44.67
55022;BME280;68328;35.990;-86.756;2023-03-13T12:13:47;99200.40;;;7.36;45.03
55022;BME280;68328;35.990;-86.756;2023-03-13T12:16:14;99202.68;;;7.74;44.24
55022;BME280;68328;35.990;-86.756;2023-03-13T12:18:39;99204.18;;;8.00;43.89
55022;BME280;68328;35.990;-86.756;2023-03-13T12:21:06;99207.50;;;8.19;43.59
55022;BME280;68328;35.990;-86.756;2023-03-13T12:23:39;99209.33;;;8.43;44.05
55022;BME280;68328;35.990;-86.756;2023-03-13T12:25:55;99210.75;;;7.86;43.39
55022;BME280;68328;35.990;-86.756;2023-03-13T12:28:25;99211.18;;;7.84;43.94
55022;BME280;68328;35.990;-86.756;2023-03-13T12:30:46;99209.66;;;7.82;43.58
55022;BME280;68328;35.990;-86.756;2023-03-13T12:33:18;99212.06;;;7.88;43.98
55022;BME280;68328;35.990;-86.756;2023-03-13T12:35:36;99215.89;;;7.78;44.23